Time;durP1;ratioP1;P1;durP2;ratioP2;P2;SDS_P1;SDS_P2;PMS_P1;PMS_P2;Temp;Humidity;BMP_temperature;BMP_pressure;BME280_temperature;BME280_humidity;BME280_pressure;Samples;Min_cycle;Max_cycle;Signal;HPM_P1;HPM_P2
2022/02/11 00:09:04;;;;;;;71.35;41.67;;;;;;;;;;5054382;28;20076;-50
2022/02/11 00:11:32;;;;;;;73.32;40.97;;;;;;;;;;5054480;28;20091;-47
2022/02/11 00:13:59;;;;;;;64.25;36.88;;;;;;;;;;5054125;28;20419;-55
2022/02/11 00:16:25;;;;;;;65.38;40.28;;;;;;;;;;5054254;28;20100;-47
2022/02/11 00:18:51;;;;;;;69.63;38.80;;;;;;;;;;5054097;28;20392;-50
2022/02/11 00:21:24;;;;;;;63.80;36.70;;;;;;;;;;5052720;28;20033;-48
2022/02/11 00:23:50;;;;;;;66.88;39.72;;;;;;;;;;5053079;28;20048;-49
2022/02/11 00:26:16;;;;;;;85.38;47.38;;;;;;;;;;5054104;28;20096;-48
2022/02/11 00:34:02;;;;;;;69.05;36.55;;;;;;;;;;5054149;28;20485;-46
2022/02/11 00:36:35;;;;;;;69.50;38.75;;;;;;;;;;5053643;28;20029;-50
2022/02/11 00:39:31;;;;;;;63.88;36.13;;;;;;;;;;5053812;28;20056;-54
2022/02/11 00:53:29;;;;;;;67.18;39.08;;;;;;;;;;5032060;28;20084;-47
2022/02/11 01:04:00;;;;;;;70.78;39.67;;;;;;;;;;5031420;28;20138;-47
2022/02/11 01:06:26;;;;;;;67.85;39.97;;;;;;;;;;5031293;28;20033;-48
2022/02/11 01:08:53;;;;;;;68.85;38.97;;;;;;;;;;5031244;28;20025;-47
2022/02/11 01:11:32;;;;;;;68.32;40.15;;;;;;;;;;5031459;28;20029;-48
2022/02/11 01:13:59;;;;;;;67.07;41.40;;;;;;;;;;5031102;28;20040;-48
2022/02/11 01:16:50;;;;;;;62.03;38.25;;;;;;;;;;5031202;28;20102;-47
2022/02/11 01:19:27;;;;;;;67.47;40.67;;;;;;;;;;5030648;28;20145;-48
2022/02/11 01:27:38;;;;;;;67.10;40.58;;;;;;;;;;4972002;28;20230;-47
2022/02/11 01:38:17;;;;;;;68.70;40.20;;;;;;;;;;4972085;28;20505;-52
2022/02/11 01:46:33;;;;;;;63.83;36.50;;;;;;;;;;4972283;28;20050;-50
2022/02/11 01:54:16;;;;;;;63.13;35.67;;;;;;;;;;4971810;28;20039;-46
2022/02/11 01:56:53;;;;;;;62.40;36.15;;;;;;;;;;4972004;28;20101;-48
2022/02/11 01:59:53;;;;;;;65.50;37.58;;;;;;;;;;4973232;28;20500;-47
2022/02/11 02:13:54;;;;;;;62.35;36.85;;;;;;;;;;5030517;28;20034;-47
2022/02/11 02:21:58;;;;;;;59.03;37.38;;;;;;;;;;5030449;28;20029;-47
2022/02/11 02:24:42;;;;;;;64.68;36.42;;;;;;;;;;5030423;28;20057;-48
2022/02/11 02:33:19;;;;;;;56.22;34.90;;;;;;;;;;5030643;28;20137;-47
2022/02/11 02:50:09;;;;;;;48.53;30.60;;;;;;;;;;5030559;28;20028;-47
2022/02/11 03:14:37;;;;;;;44.30;27.60;;;;;;;;;;5056011;28;20029;-46
2022/02/11 03:16:47;;;;;;;45.92;28.20;;;;;;;;;;5055305;28;20071;-50
2022/02/11 03:35:36;;;;;;;42.08;24.92;;;;;;;;;;5055273;28;20044;-47
2022/02/11 03:49:13;;;;;;;52.83;28.10;;;;;;;;;;5054988;28;20079;-47
2022/02/11 04:56:56;;;;;;;49.97;26.08;;;;;;;;;;5031591;28;20037;-46
2022/02/11 04:59:40;;;;;;;50.83;26.63;;;;;;;;;;5031359;28;20130;-46
2022/02/11 05:02:07;;;;;;;44.83;26.05;;;;;;;;;;5031485;28;20108;-47
2022/02/11 05:04:34;;;;;;;47.90;28.80;;;;;;;;;;5043417;28;20186;-48
2022/02/11 05:07:00;;;;;;;44.83;26.52;;;;;;;;;;5053097;28;20032;-47
2022/02/11 05:09:27;;;;;;;46.75;25.33;;;;;;;;;;5052750;28;20021;-52
2022/02/11 05:11:53;;;;;;;45.30;25.35;;;;;;;;;;5053203;28;20102;-47
2022/02/11 05:14:19;;;;;;;46.95;25.70;;;;;;;;;;5053318;28;20029;-51
2022/02/11 05:16:45;;;;;;;39.75;23.25;;;;;;;;;;5053274;28;20039;-47
2022/02/11 05:19:11;;;;;;;42.85;24.15;;;;;;;;;;5050948;28;20029;-48
2022/02/11 05:21:37;;;;;;;41.78;23.95;;;;;;;;;;5052021;28;20063;-46
2022/02/11 05:24:04;;;;;;;38.22;22.73;;;;;;;;;;5051799;28;20118;-45
2022/02/11 05:26:30;;;;;;;42.33;23.98;;;;;;;;;;5051642;28;20108;-46
2022/02/11 05:28:56;;;;;;;42.80;23.70;;;;;;;;;;5051387;28;20064;-46
2022/02/11 05:31:22;;;;;;;49.95;24.42;;;;;;;;;;5051535;28;20397;-46
2022/02/11 05:33:48;;;;;;;41.75;23.27;;;;;;;;;;5052108;28;20039;-47
2022/02/11 05:36:17;;;;;;;43.85;24.55;;;;;;;;;;5052721;28;20029;-52
2022/02/11 05:38:46;;;;;;;47.53;25.17;;;;;;;;;;5052801;28;20146;-47
2022/02/11 05:41:12;;;;;;;53.28;27.88;;;;;;;;;;5052885;28;20021;-47
2022/02/11 05:43:40;;;;;;;46.15;26.40;;;;;;;;;;5053237;28;20013;-47
2022/02/11 05:46:07;;;;;;;44.72;25.83;;;;;;;;;;5052906;28;20040;-51
2022/02/11 05:48:36;;;;;;;42.80;25.38;;;;;;;;;;5052845;28;20170;-47
2022/02/11 05:51:02;;;;;;;37.75;23.92;;;;;;;;;;5052848;28;20044;-47
2022/02/11 05:53:28;;;;;;;45.05;26.48;;;;;;;;;;5052724;28;20537;-47
2022/02/11 05:55:54;;;;;;;49.60;27.15;;;;;;;;;;5052877;28;20474;-48
2022/02/11 05:58:20;;;;;;;47.22;27.55;;;;;;;;;;5052983;28;20025;-47
2022/02/11 06:00:46;;;;;;;52.70;32.55;;;;;;;;;;5053273;28;20098;-47
2022/02/11 06:03:12;;;;;;;56.50;31.83;;;;;;;;;;5052969;28;20390;-47
2022/02/11 06:05:38;;;;;;;57.53;32.85;;;;;;;;;;5052783;28;20025;-46
2022/02/11 06:08:04;;;;;;;56.03;31.42;;;;;;;;;;5052990;28;20025;-48
2022/02/11 06:10:30;;;;;;;56.33;30.70;;;;;;;;;;5052728;28;20032;-47
2022/02/11 06:12:56;;;;;;;53.42;28.52;;;;;;;;;;5052822;28;20107;-47
2022/02/11 06:15:25;;;;;;;58.13;29.17;;;;;;;;;;5051323;28;20477;-47
2022/02/11 06:17:52;;;;;;;76.80;35.63;;;;;;;;;;5052651;28;20029;-47
2022/02/11 06:20:23;;;;;;;68.13;38.88;;;;;;;;;;5052848;28;20036;-47
2022/02/11 06:22:49;;;;;;;57.20;34.10;;;;;;;;;;5056235;28;20477;-48
2022/02/11 06:25:15;;;;;;;59.13;33.78;;;;;;;;;;5056647;28;20048;-48
2022/02/11 06:27:41;;;;;;;62.63;34.92;;;;;;;;;;5056365;28;20036;-49
2022/02/11 06:30:07;;;;;;;51.30;31.10;;;;;;;;;;5056164;28;20060;-48
2022/02/11 06:32:33;;;;;;;55.28;30.30;;;;;;;;;;5056033;28;20025;-47
2022/02/11 06:35:00;;;;;;;61.38;31.48;;;;;;;;;;5056147;28;20032;-49
2022/02/11 06:37:26;;;;;;;55.08;28.70;;;;;;;;;;5056017;28;20146;-49
2022/02/11 06:39:52;;;;;;;54.05;31.17;;;;;;;;;;5056223;28;20021;-52
2022/02/11 06:42:18;;;;;;;51.40;31.58;;;;;;;;;;5056083;28;20027;-52
2022/02/11 06:44:44;;;;;;;58.80;35.88;;;;;;;;;;5056136;28;20044;-50
2022/02/11 06:47:10;;;;;;;50.95;32.72;;;;;;;;;;5056373;28;20053;-49
2022/02/11 06:49:36;;;;;;;49.90;32.95;;;;;;;;;;5056216;28;20037;-49
2022/02/11 06:52:02;;;;;;;53.45;31.83;;;;;;;;;;5056551;28;20379;-49
2022/02/11 06:54:28;;;;;;;51.03;30.98;;;;;;;;;;5056097;28;20029;-50
2022/02/11 06:56:54;;;;;;;46.25;28.63;;;;;;;;;;5055995;28;20033;-49
2022/02/11 06:59:20;;;;;;;48.42;30.05;;;;;;;;;;5056032;28;20029;-49
2022/02/11 07:01:47;;;;;;;45.67;27.30;;;;;;;;;;5055976;28;20068;-50
2022/02/11 07:04:14;;;;;;;39.20;25.42;;;;;;;;;;5055717;28;20021;-50
2022/02/11 07:06:40;;;;;;;47.95;25.20;;;;;;;;;;5055811;28;20028;-49
2022/02/11 07:09:06;;;;;;;42.60;25.15;;;;;;;;;;5055893;28;20045;-49
2022/02/11 07:11:32;;;;;;;48.97;24.92;;;;;;;;;;5055880;28;20021;-52
2022/02/11 07:13:58;;;;;;;39.10;22.58;;;;;;;;;;5055710;28;20028;-51
2022/02/11 07:16:26;;;;;;;40.75;22.27;;;;;;;;;;5055306;28;20033;-49
2022/02/11 07:18:52;;;;;;;42.53;22.13;;;;;;;;;;5055520;28;20047;-53
2022/02/11 07:21:18;;;;;;;37.42;22.42;;;;;;;;;;5055565;28;20474;-54
2022/02/11 07:23:49;;;;;;;40.45;24.20;;;;;;;;;;5055330;28;20072;-53
2022/02/11 07:26:19;;;;;;;48.83;27.65;;;;;;;;;;5055692;28;20021;-53
2022/02/11 07:28:45;;;;;;;46.60;27.55;;;;;;;;;;5055242;28;20166;-49
2022/02/11 07:31:11;;;;;;;41.80;26.10;;;;;;;;;;5055239;28;20029;-49
2022/02/11 07:33:37;;;;;;;45.38;28.35;;;;;;;;;;5054457;28;20025;-49
2022/02/11 07:36:03;;;;;;;49.92;27.98;;;;;;;;;;5054968;28;20106;-49
2022/02/11 07:38:30;;;;;;;47.67;26.75;;;;;;;;;;5055088;28;20064;-49
2022/02/11 07:40:57;;;;;;;42.75;24.63;;;;;;;;;;5055141;28;20060;-50
2022/02/11 07:43:24;;;;;;;40.05;24.67;;;;;;;;;;5055383;28;20072;-53
2022/02/11 07:45:50;;;;;;;37.97;23.45;;;;;;;;;;5055217;28;20496;-55
2022/02/11 07:48:18;;;;;;;33.88;21.10;;;;;;;;;;5054990;28;20033;-55
2022/02/11 07:50:45;;;;;;;33.78;21.10;;;;;;;;;;5054907;28;20036;-48
2022/02/11 07:53:11;;;;;;;37.15;20.67;;;;;;;;;;5054760;28;20029;-49
2022/02/11 07:55:37;;;;;;;32.63;19.23;;;;;;;;;;5055005;28;20116;-49
2022/02/11 07:58:03;;;;;;;30.95;21.08;;;;;;;;;;5054989;28;20389;-52
2022/02/11 08:00:29;;;;;;;35.95;20.10;;;;;;;;;;5054941;28;20116;-55
2022/02/11 08:02:55;;;;;;;35.33;20.08;;;;;;;;;;5054863;28;20481;-49
2022/02/11 08:05:21;;;;;;;33.88;20.30;;;;;;;;;;5054589;28;20025;-55
2022/02/11 08:07:47;;;;;;;36.97;21.23;;;;;;;;;;5054626;28;20496;-53
2022/02/11 08:10:13;;;;;;;33.83;20.13;;;;;;;;;;5054961;28;20032;-52
2022/02/11 08:12:40;;;;;;;40.00;21.05;;;;;;;;;;5054544;28;20021;-54
2022/02/11 08:15:07;;;;;;;42.47;20.33;;;;;;;;;;5052726;28;20039;-55
2022/02/11 08:17:36;;;;;;;37.70;20.42;;;;;;;;;;5053022;28;20493;-55
2022/02/11 08:20:05;;;;;;;32.45;17.58;;;;;;;;;;5054232;28;20087;-52
2022/02/11 08:22:31;;;;;;;31.70;16.25;;;;;;;;;;5054122;28;20116;-49
2022/02/11 08:24:58;;;;;;;31.08;16.48;;;;;;;;;;5054251;28;20049;-53
2022/02/11 08:27:24;;;;;;;28.52;16.67;;;;;;;;;;5054178;28;20556;-54
2022/02/11 08:29:50;;;;;;;32.35;16.55;;;;;;;;;;5054087;28;20053;-49
2022/02/11 08:32:19;;;;;;;23.90;13.57;;;;;;;;;;5054205;28;20477;-54
2022/02/11 08:34:46;;;;;;;31.25;17.95;;;;;;;;;;5054141;28;20028;-48
2022/02/11 08:37:12;;;;;;;25.58;15.77;;;;;;;;;;5053745;28;20036;-49
2022/02/11 08:39:40;;;;;;;27.83;17.33;;;;;;;;;;5054000;28;20017;-49
2022/02/11 08:42:07;;;;;;;37.45;20.40;;;;;;;;;;5054421;28;20486;-50
2022/02/11 08:44:34;;;;;;;35.40;20.48;;;;;;;;;;5053334;28;20117;-48
2022/02/11 08:47:00;;;;;;;37.15;20.98;;;;;;;;;;5054103;28;20021;-48
2022/02/11 08:49:26;;;;;;;39.85;21.40;;;;;;;;;;5053691;28;20033;-51
2022/02/11 08:51:55;;;;;;;39.72;20.10;;;;;;;;;;5053874;28;20060;-51
2022/02/11 08:54:21;;;;;;;35.28;19.13;;;;;;;;;;5053870;28;20507;-50
2022/02/11 08:56:49;;;;;;;27.92;16.08;;;;;;;;;;5053596;28;20120;-55
2022/02/11 08:59:16;;;;;;;28.27;15.70;;;;;;;;;;5053594;28;20040;-49
2022/02/11 09:01:44;;;;;;;33.88;15.65;;;;;;;;;;5052159;28;20465;-48
2022/02/11 09:04:10;;;;;;;28.33;13.63;;;;;;;;;;5053428;28;20032;-55
2022/02/11 09:06:37;;;;;;;29.35;13.27;;;;;;;;;;5053536;28;20017;-48
2022/02/11 09:09:04;;;;;;;27.58;11.80;;;;;;;;;;5053722;28;20416;-48
2022/02/11 09:11:30;;;;;;;26.55;13.80;;;;;;;;;;5053492;28;20505;-53
2022/02/11 09:13:56;;;;;;;32.75;15.10;;;;;;;;;;5053365;28;20035;-53
2022/02/11 09:16:22;;;;;;;30.80;14.13;;;;;;;;;;5053345;28;20067;-51
2022/02/11 09:18:48;;;;;;;25.55;13.45;;;;;;;;;;5053179;28;20029;-49
2022/02/11 09:21:14;;;;;;;30.13;13.27;;;;;;;;;;5053237;28;20116;-50
2022/02/11 09:23:40;;;;;;;26.45;13.18;;;;;;;;;;5053281;28;20099;-50
2022/02/11 09:26:06;;;;;;;31.58;12.82;;;;;;;;;;5053142;28;20029;-53
2022/02/11 09:28:33;;;;;;;25.50;14.00;;;;;;;;;;5053224;28;20045;-49
2022/02/11 09:30:59;;;;;;;30.45;13.75;;;;;;;;;;5053086;28;20040;-49
2022/02/11 09:33:26;;;;;;;16.30;8.80;;;;;;;;;;5053136;28;20067;-49
2022/02/11 09:35:52;;;;;;;30.15;8.48;;;;;;;;;;5052778;28;20037;-49
2022/02/11 09:38:19;;;;;;;19.33;6.82;;;;;;;;;;5053197;28;20102;-49
2022/02/11 09:40:50;;;;;;;20.08;7.57;;;;;;;;;;5051486;28;20033;-51
2022/02/11 09:43:17;;;;;;;15.88;7.00;;;;;;;;;;5053391;28;20018;-55
2022/02/11 09:45:46;;;;;;;18.15;8.65;;;;;;;;;;5052924;28;20056;-50
2022/02/11 09:48:13;;;;;;;16.60;6.85;;;;;;;;;;5053096;28;20017;-48
2022/02/11 09:50:39;;;;;;;13.90;5.30;;;;;;;;;;5053177;28;20100;-49
2022/02/11 09:53:05;;;;;;;18.80;6.40;;;;;;;;;;5052861;28;20420;-56
2022/02/11 09:55:40;;;;;;;16.13;8.23;;;;;;;;;;5053376;28;20437;-48
2022/02/11 09:58:06;;;;;;;14.60;7.32;;;;;;;;;;5057244;28;20104;-50
2022/02/11 10:00:34;;;;;;;24.17;7.72;;;;;;;;;;5057116;28;20033;-51
2022/02/11 10:03:04;;;;;;;19.20;7.68;;;;;;;;;;5056939;28;20455;-51
2022/02/11 10:05:34;;;;;;;16.63;7.15;;;;;;;;;;5057257;28;20103;-54
2022/02/11 10:08:01;;;;;;;12.07;7.45;;;;;;;;;;5056783;28;20018;-53
2022/02/11 10:10:38;;;;;;;16.98;5.65;;;;;;;;;;5057045;28;20032;-50
2022/02/11 10:13:14;;;;;;;14.48;4.35;;;;;;;;;;5057346;28;20044;-52
2022/02/11 10:15:43;;;;;;;13.52;5.30;;;;;;;;;;5056927;28;20070;-49
2022/02/11 10:18:09;;;;;;;13.93;5.93;;;;;;;;;;5056590;28;20055;-48
2022/02/11 10:20:41;;;;;;;8.45;4.50;;;;;;;;;;5056792;28;20104;-52
2022/02/11 10:23:27;;;;;;;12.48;5.63;;;;;;;;;;5056535;28;20025;-49
2022/02/11 10:25:56;;;;;;;14.32;6.38;;;;;;;;;;5056702;28;20086;-53
2022/02/11 10:28:35;;;;;;;13.60;6.25;;;;;;;;;;5056314;28;20099;-54
2022/02/11 10:31:09;;;;;;;16.98;6.32;;;;;;;;;;5056427;28;20044;-50
2022/02/11 10:33:48;;;;;;;18.00;7.70;;;;;;;;;;5056390;28;20025;-50
2022/02/11 10:36:40;;;;;;;18.27;8.00;;;;;;;;;;5056212;28;20075;-50
2022/02/11 10:39:19;;;;;;;24.73;10.68;;;;;;;;;;5055287;28;20213;-50
2022/02/11 10:41:54;;;;;;;24.30;10.07;;;;;;;;;;5056196;28;20029;-53
2022/02/11 10:44:22;;;;;;;19.83;8.88;;;;;;;;;;5056294;28;20039;-53
2022/02/11 10:46:49;;;;;;;15.90;7.88;;;;;;;;;;5056109;28;20489;-50
2022/02/11 10:49:16;;;;;;;15.18;6.53;;;;;;;;;;5056094;28;20374;-50
2022/02/11 10:51:44;;;;;;;17.52;6.72;;;;;;;;;;5056063;28;20044;-50
2022/02/11 10:54:30;;;;;;;16.73;7.03;;;;;;;;;;5055998;28;20436;-49
2022/02/11 10:56:57;;;;;;;14.90;5.57;;;;;;;;;;5055647;28;20033;-50
2022/02/11 10:59:27;;;;;;;21.77;10.63;;;;;;;;;;5055883;28;20044;-49
2022/02/11 11:01:54;;;;;;;19.42;7.25;;;;;;;;;;5056513;28;20040;-50
2022/02/11 11:04:20;;;;;;;13.70;5.43;;;;;;;;;;5055705;28;20029;-50
2022/02/11 11:06:47;;;;;;;22.00;7.10;;;;;;;;;;5055754;28;20177;-52
2022/02/11 11:09:15;;;;;;;15.80;6.35;;;;;;;;;;5055245;28;20124;-53
2022/02/11 11:11:43;;;;;;;15.38;5.53;;;;;;;;;;5055911;28;20507;-49
2022/02/11 11:14:12;;;;;;;22.48;8.32;;;;;;;;;;5055853;28;20025;-52
2022/02/11 11:16:38;;;;;;;23.77;7.03;;;;;;;;;;5055235;28;20171;-53
2022/02/11 11:19:04;;;;;;;9.50;4.95;;;;;;;;;;5055967;28;20025;-50
2022/02/11 11:21:31;;;;;;;24.85;8.38;;;;;;;;;;5055393;28;20025;-53
2022/02/11 11:23:58;;;;;;;13.18;6.07;;;;;;;;;;5055529;28;20028;-54
2022/02/11 11:26:45;;;;;;;23.95;5.97;;;;;;;;;;5055412;28;20025;-59
2022/02/11 11:29:11;;;;;;;9.73;4.95;;;;;;;;;;5055060;28;20136;-52
2022/02/11 11:31:37;;;;;;;16.98;6.38;;;;;;;;;;5055193;28;20033;-54
2022/02/11 11:34:15;;;;;;;11.18;5.15;;;;;;;;;;5055338;28;20396;-51
2022/02/11 11:36:51;;;;;;;14.50;5.88;;;;;;;;;;5055477;28;20036;-52
2022/02/11 11:39:20;;;;;;;29.27;5.93;;;;;;;;;;5054914;28;20029;-57
2022/02/11 11:42:07;;;;;;;11.75;5.50;;;;;;;;;;5055314;28;20033;-45
2022/02/11 11:44:44;;;;;;;12.35;5.57;;;;;;;;;;5055108;28;20377;-47
2022/02/11 11:47:13;;;;;;;13.43;4.63;;;;;;;;;;5055242;28;20079;-44
2022/02/11 11:49:40;;;;;;;14.10;5.18;;;;;;;;;;5054919;28;20470;-50
2022/02/11 11:52:08;;;;;;;13.75;5.65;;;;;;;;;;5054756;28;20032;-46
2022/02/11 11:54:34;;;;;;;13.63;6.53;;;;;;;;;;5054692;28;20021;-45
2022/02/11 11:57:01;;;;;;;12.43;7.15;;;;;;;;;;5054591;28;20033;-45
2022/02/11 11:59:37;;;;;;;15.65;5.43;;;;;;;;;;5054884;28;20099;-45
2022/02/11 12:02:06;;;;;;;11.13;5.03;;;;;;;;;;5054762;28;20029;-46
2022/02/11 12:04:34;;;;;;;24.45;14.07;;;;;;;;;;5054693;28;20484;-47
2022/02/11 12:07:07;;;;;;;21.30;8.15;;;;;;;;;;5055248;28;20032;-49
2022/02/11 12:09:34;;;;;;;17.55;7.65;;;;;;;;;;5054500;28;20078;-49
2022/02/11 12:12:00;;;;;;;16.00;7.60;;;;;;;;;;5054442;28;20070;-49
2022/02/11 12:14:27;;;;;;;16.13;4.80;;;;;;;;;;5054368;28;20191;-50
2022/02/11 12:16:54;;;;;;;13.00;4.97;;;;;;;;;;5054269;28;20036;-49
2022/02/11 12:19:20;;;;;;;17.40;8.35;;;;;;;;;;5054393;28;20129;-50
2022/02/11 12:21:46;;;;;;;12.90;6.15;;;;;;;;;;5054112;28;20025;-50
2022/02/11 12:29:48;;;;;;;14.25;5.45;;;;;;;;;;5054200;28;20405;-50
2022/02/11 12:32:16;;;;;;;13.98;6.32;;;;;;;;;;5053968;28;20033;-50
2022/02/11 12:34:47;;;;;;;17.08;6.50;;;;;;;;;;5052840;28;20363;-52
2022/02/11 12:37:13;;;;;;;15.10;7.55;;;;;;;;;;5053859;28;20033;-52
2022/02/11 12:39:39;;;;;;;14.43;6.90;;;;;;;;;;5054041;28;20028;-51
2022/02/11 12:42:05;;;;;;;17.67;9.98;;;;;;;;;;5053844;28;20037;-52
2022/02/11 12:44:32;;;;;;;17.05;7.65;;;;;;;;;;5054064;28;20029;-54
2022/02/11 12:46:59;;;;;;;15.98;6.60;;;;;;;;;;5053700;28;20100;-54
2022/02/11 12:49:26;;;;;;;16.05;5.90;;;;;;;;;;5052319;28;20032;-49
2022/02/11 12:51:53;;;;;;;13.13;5.70;;;;;;;;;;5054083;28;20108;-49
2022/02/11 12:54:19;;;;;;;16.08;6.10;;;;;;;;;;5053471;28;20466;-52
2022/02/11 12:56:46;;;;;;;15.15;6.32;;;;;;;;;;5053715;28;20083;-50
2022/02/11 12:59:12;;;;;;;28.77;5.13;;;;;;;;;;5053473;28;20025;-49
2022/02/11 13:01:38;;;;;;;13.88;5.35;;;;;;;;;;5053554;28;20071;-50
2022/02/11 13:04:04;;;;;;;16.67;6.60;;;;;;;;;;5053350;28;20485;-50
2022/02/11 13:06:34;;;;;;;29.25;10.60;;;;;;;;;;5053482;28;20037;-49
2022/02/11 13:09:04;;;;;;;12.75;5.88;;;;;;;;;;5053267;28;20469;-49
2022/02/11 13:11:30;;;;;;;17.17;7.45;;;;;;;;;;5053370;28;20040;-50
2022/02/11 13:14:06;;;;;;;15.13;7.47;;;;;;;;;;5053407;28;20032;-51
2022/02/11 13:16:33;;;;;;;17.23;8.52;;;;;;;;;;5053396;28;20433;-49
2022/02/11 13:19:17;;;;;;;16.50;8.60;;;;;;;;;;5051864;28;20028;-49
2022/02/11 13:21:43;;;;;;;19.48;10.43;;;;;;;;;;5053155;28;20032;-49
2022/02/11 13:24:09;;;;;;;11.77;5.35;;;;;;;;;;5053341;28;20104;-52
2022/02/11 13:26:37;;;;;;;16.17;6.50;;;;;;;;;;5053082;28;20044;-50
2022/02/11 13:29:03;;;;;;;22.08;8.07;;;;;;;;;;5053010;28;20128;-49
2022/02/11 13:31:45;;;;;;;18.58;7.28;;;;;;;;;;5052448;28;20029;-48
2022/02/11 13:34:11;;;;;;;18.75;6.95;;;;;;;;;;5051783;28;20478;-50
2022/02/11 13:36:38;;;;;;;21.10;8.20;;;;;;;;;;5053075;28;20037;-49
2022/02/11 13:39:04;;;;;;;16.75;7.45;;;;;;;;;;5053028;28;20021;-49
2022/02/11 13:41:38;;;;;;;20.08;7.95;;;;;;;;;;5053052;28;20021;-50
2022/02/11 13:44:10;;;;;;;19.90;5.97;;;;;;;;;;5053067;28;20448;-50
2022/02/11 13:46:35;;;;;;;;;;;;;;;;;;5053464;28;20028;-49
2022/02/11 13:49:04;;;;;;;12.07;4.55;;;;;;;;;;5052816;28;19905;-53
2022/02/11 13:51:32;;;;;;;18.17;6.53;;;;;;;;;;5053246;28;20025;-49
2022/02/11 13:54:08;;;;;;;14.98;6.63;;;;;;;;;;5052725;28;20088;-49
2022/02/11 13:56:34;;;;;;;10.35;5.90;;;;;;;;;;5051575;28;20082;-49
2022/02/11 13:59:02;;;;;;;14.10;5.50;;;;;;;;;;5052392;28;20067;-53
2022/02/11 14:01:29;;;;;;;10.90;5.68;;;;;;;;;;5051710;28;20047;-47
2022/02/11 14:03:59;;;;;;;12.23;6.90;;;;;;;;;;5051526;28;20021;-47
2022/02/11 14:06:25;;;;;;;14.40;7.25;;;;;;;;;;5051215;28;20021;-47
2022/02/11 14:08:51;;;;;;;15.77;6.30;;;;;;;;;;5048652;28;20377;-48
2022/02/11 14:11:21;;;;;;;41.58;15.13;;;;;;;;;;5051087;28;20028;-49
2022/02/11 14:13:48;;;;;;;24.63;9.15;;;;;;;;;;5051280;28;20516;-48
2022/02/11 14:16:15;;;;;;;46.03;23.13;;;;;;;;;;5030002;28;20069;-50
2022/02/11 14:18:44;;;;;;;31.23;13.20;;;;;;;;;;5017373;28;20033;-52
2022/02/11 14:21:19;;;;;;;15.70;6.78;;;;;;;;;;5017702;28;20021;-51
2022/02/11 14:23:45;;;;;;;36.85;19.90;;;;;;;;;;5017123;28;20061;-49
2022/02/11 14:26:11;;;;;;;26.58;14.18;;;;;;;;;;5017275;28;20035;-51
2022/02/11 14:28:37;;;;;;;19.80;9.50;;;;;;;;;;5017160;28;20045;-53
2022/02/11 14:31:04;;;;;;;26.10;10.32;;;;;;;;;;5016731;28;20109;-53
2022/02/11 14:33:31;;;;;;;24.50;10.55;;;;;;;;;;5016883;28;20025;-51
2022/02/11 14:35:57;;;;;;;23.85;8.10;;;;;;;;;;5016526;28;20695;-53
2022/02/11 14:38:24;;;;;;;30.98;8.57;;;;;;;;;;5020926;28;20067;-46
2022/02/11 14:43:35;;;;;;;39.60;16.83;;;;;;;;;;5035182;28;20162;-47
2022/02/11 14:46:01;;;;;;;33.00;16.77;;;;;;;;;;5036190;28;20509;-46
2022/02/11 14:48:27;;;;;;;35.65;17.50;;;;;;;;;;5045229;28;20032;-49
2022/02/11 14:50:53;;;;;;;37.65;13.48;;;;;;;;;;5054324;28;20028;-49
2022/02/11 14:53:19;;;;;;;36.22;18.10;;;;;;;;;;5054222;28;20013;-49
2022/02/11 14:55:45;;;;;;;35.67;19.80;;;;;;;;;;5054411;28;20032;-50
2022/02/11 14:58:15;;;;;;;40.55;23.13;;;;;;;;;;5054356;28;20025;-48
2022/02/11 15:00:43;;;;;;;55.20;27.33;;;;;;;;;;5054537;28;20043;-48
2022/02/11 15:03:09;;;;;;;64.32;20.60;;;;;;;;;;5051738;28;20594;-48
2022/02/11 15:05:38;;;;;;;60.78;33.15;;;;;;;;;;5055773;28;20446;-51
2022/02/11 15:08:04;;;;;;;32.22;13.13;;;;;;;;;;5055509;28;20040;-52
2022/02/11 15:10:31;;;;;;;47.33;22.00;;;;;;;;;;5055489;28;20036;-49
2022/02/11 15:12:57;;;;;;;25.58;15.38;;;;;;;;;;5055469;28;20469;-50
2022/02/11 15:15:23;;;;;;;34.97;14.73;;;;;;;;;;5055440;28;20108;-49
2022/02/11 15:17:49;;;;;;;27.88;12.90;;;;;;;;;;5055539;28;20079;-48
2022/02/11 15:20:15;;;;;;;36.55;16.80;;;;;;;;;;5055054;28;20067;-49
2022/02/11 15:22:41;;;;;;;45.10;19.42;;;;;;;;;;5053817;28;20051;-50
2022/02/11 15:25:08;;;;;;;42.17;19.20;;;;;;;;;;5054639;28;20032;-51
2022/02/11 15:27:34;;;;;;;57.83;33.20;;;;;;;;;;5054773;28;20064;-50
2022/02/11 15:30:01;;;;;;;113.40;53.65;;;;;;;;;;5054927;28;20129;-49
2022/02/11 15:32:27;;;;;;;53.20;27.77;;;;;;;;;;5055287;28;20037;-49
2022/02/11 15:34:53;;;;;;;39.90;15.75;;;;;;;;;;5055121;28;20331;-49
2022/02/11 15:37:19;;;;;;;30.63;16.13;;;;;;;;;;5054955;28;20036;-50
2022/02/11 15:39:45;;;;;;;44.70;18.35;;;;;;;;;;5054899;28;20029;-49
2022/02/11 15:42:11;;;;;;;57.50;28.83;;;;;;;;;;5055021;28;20040;-48
2022/02/11 15:44:37;;;;;;;39.72;22.67;;;;;;;;;;5054838;28;20096;-54
2022/02/11 15:47:03;;;;;;;38.83;17.75;;;;;;;;;;5054748;28;20537;-49
2022/02/11 15:49:30;;;;;;;47.13;17.40;;;;;;;;;;5054755;28;20025;-49
2022/02/11 15:51:56;;;;;;;41.42;19.77;;;;;;;;;;5054770;28;20100;-49
2022/02/11 15:54:22;;;;;;;65.50;14.02;;;;;;;;;;5054409;28;20087;-49
2022/02/11 15:56:48;;;;;;;40.88;14.45;;;;;;;;;;5054599;28;20065;-48
2022/02/11 15:59:14;;;;;;;32.85;14.10;;;;;;;;;;5054727;28;20032;-51
2022/02/11 16:01:40;;;;;;;40.25;15.35;;;;;;;;;;5052672;28;20043;-52
2022/02/11 16:04:07;;;;;;;34.75;13.23;;;;;;;;;;5039211;28;20064;-50
2022/02/11 16:06:34;;;;;;;36.92;13.70;;;;;;;;;;5023493;28;20032;-50
2022/02/11 16:09:00;;;;;;;31.40;12.40;;;;;;;;;;5022214;28;20440;-50
2022/02/11 16:11:28;;;;;;;31.30;14.23;;;;;;;;;;5022153;28;20029;-50
2022/02/11 16:13:54;;;;;;;33.72;17.45;;;;;;;;;;5022255;28;20033;-49
2022/02/11 16:16:20;;;;;;;28.67;13.95;;;;;;;;;;5022148;28;20029;-49
2022/02/11 16:18:49;;;;;;;30.77;14.45;;;;;;;;;;5022117;28;20014;-49
2022/02/11 16:21:15;;;;;;;37.38;15.13;;;;;;;;;;5022088;28;20136;-49
2022/02/11 16:23:41;;;;;;;33.20;16.80;;;;;;;;;;5022055;28;20376;-49
2022/02/11 16:26:10;;;;;;;41.38;15.95;;;;;;;;;;5022104;28;20413;-52
2022/02/11 16:28:37;;;;;;;32.83;16.42;;;;;;;;;;5025392;28;20044;-48
2022/02/11 16:31:24;;;;;;;35.63;16.30;;;;;;;;;;5025449;28;20034;-49
2022/02/11 16:33:53;;;;;;;47.00;20.63;;;;;;;;;;5025305;28;20041;-48
2022/02/11 16:36:19;;;;;;;36.13;15.95;;;;;;;;;;5021822;28;20922;-49
2022/02/11 16:38:47;;;;;;;36.85;16.98;;;;;;;;;;5021635;28;20029;-48
2022/02/11 16:41:15;;;;;;;33.97;16.17;;;;;;;;;;5021837;28;20041;-48
2022/02/11 16:43:42;;;;;;;31.33;14.70;;;;;;;;;;5022792;28;20055;-50
2022/02/11 16:46:09;;;;;;;29.90;14.48;;;;;;;;;;5021823;28;20021;-50
2022/02/11 16:48:35;;;;;;;31.65;16.23;;;;;;;;;;5021702;28;20390;-53
2022/02/11 16:51:01;;;;;;;39.50;17.50;;;;;;;;;;5021730;28;20024;-49
2022/02/11 16:53:27;;;;;;;57.25;24.80;;;;;;;;;;5021653;28;20029;-49
2022/02/11 16:55:56;;;;;;;67.93;32.22;;;;;;;;;;5021363;28;20036;-52
2022/02/11 16:58:22;;;;;;;63.00;32.55;;;;;;;;;;5022525;28;20738;-50
2022/02/11 17:00:48;;;;;;;58.20;30.05;;;;;;;;;;5021736;28;20113;-52
2022/02/11 17:03:14;;;;;;;57.08;30.17;;;;;;;;;;5021598;28;20089;-51
2022/02/11 17:05:40;;;;;;;41.80;20.27;;;;;;;;;;5020957;28;20013;-51
2022/02/11 17:08:06;;;;;;;33.65;17.08;;;;;;;;;;5021510;28;20041;-49
2022/02/11 17:10:33;;;;;;;38.55;17.50;;;;;;;;;;5021319;28;20335;-50
2022/02/11 17:12:59;;;;;;;40.45;19.75;;;;;;;;;;5021325;28;20026;-52
2022/02/11 17:15:25;;;;;;;55.10;32.38;;;;;;;;;;5021099;28;20028;-49
2022/02/11 17:17:51;;;;;;;42.17;21.70;;;;;;;;;;5021275;28;20030;-49
2022/02/11 17:20:18;;;;;;;52.33;22.75;;;;;;;;;;5021154;28;20032;-51
2022/02/11 17:22:45;;;;;;;34.22;17.70;;;;;;;;;;5022485;28;20021;-53
2022/02/11 17:25:12;;;;;;;84.15;41.25;;;;;;;;;;5020859;28;20029;-50
2022/02/11 17:27:39;;;;;;;64.88;32.72;;;;;;;;;;5021140;28;20033;-49
2022/02/11 17:30:09;;;;;;;63.67;33.35;;;;;;;;;;5022231;28;20147;-50
2022/02/11 17:32:35;;;;;;;53.33;30.08;;;;;;;;;;5021087;28;20398;-48
2022/02/11 17:35:01;;;;;;;65.15;33.70;;;;;;;;;;5020890;28;20087;-50
2022/02/11 17:37:27;;;;;;;46.00;23.23;;;;;;;;;;5020716;28;20087;-49
2022/02/11 17:39:54;;;;;;;30.20;12.90;;;;;;;;;;5021897;28;20024;-51
2022/02/11 17:42:20;;;;;;;27.77;11.73;;;;;;;;;;5021005;28;20049;-50
2022/02/11 17:44:46;;;;;;;46.90;11.05;;;;;;;;;;5024774;28;20017;-49
2022/02/11 17:47:13;;;;;;;25.63;8.73;;;;;;;;;;5072906;28;20077;-48
2022/02/11 17:49:40;;;;;;;27.98;12.07;;;;;;;;;;5072690;28;20025;-51
2022/02/11 17:52:06;;;;;;;18.25;8.55;;;;;;;;;;5072713;28;20024;-48
2022/02/11 17:54:32;;;;;;;25.83;11.43;;;;;;;;;;5072726;28;20028;-49
2022/02/11 17:56:58;;;;;;;28.60;10.13;;;;;;;;;;5072657;28;20043;-51
2022/02/11 17:59:25;;;;;;;26.67;12.52;;;;;;;;;;5072701;28;20043;-49
2022/02/11 18:01:51;;;;;;;27.05;11.70;;;;;;;;;;5072621;28;20469;-50
2022/02/11 18:04:17;;;;;;;62.83;10.15;;;;;;;;;;5072606;28;20021;-49